Time,TemperatureF,DewpointF,PressureIn,WindDirection,WindDirectionDegrees,WindSpeedMPH,WindSpeedGustMPH,Humidity,HourlyPrecipIn,Conditions,Clouds,dailyrainin,SoftwareType,DateUTC
2013-10-15 00:01:00,57.9,55.6,29.87,North,-999,-999.0,-999.0,92,-99.99,,,-99.99,meteohub,2013-10-15 04:01:00,
2013-10-15 00:02:00,57.9,55.6,29.87,North,-999,-999.0,-999.0,92,-99.99,,,-99.99,meteohub,2013-10-15 04:02:00,
2013-10-15 00:03:00,57.9,55.6,29.87,North,-999,-999.0,-999.0,92,-99.99,,,-99.99,meteohub,2013-10-15 04:03:00,
2013-10-15 00:07:00,57.9,55.6,29.87,North,-999,-999.0,-999.0,92,-99.99,,,-99.99,meteohub,2013-10-15 04:07:00,
2013-10-15 00:12:00,57.7,55.4,29.87,North,-999,-999.0,-999.0,92,-99.99,,,-99.99,meteohub,2013-10-15 04:12:00,
2013-10-15 00:17:00,57.7,55.4,29.87,North,-999,-999.0,-999.0,92,-99.99,,,-99.99,meteohub,2013-10-15 04:17:00,
2013-10-15 00:22:00,57.7,55.4,29.87,North,-999,-999.0,-999.0,92,-99.99,,,-99.99,meteohub,2013-10-15 04:22:00,
2013-10-15 00:27:00,57.7,55.4,29.87,North,-999,-999.0,-999.0,92,-99.99,,,-99.99,meteohub,2013-10-15 04:27:00,
2013-10-15 00:32:00,57.7,55.4,29.87,North,-999,-999.0,-999.0,92,-99.99,,,-99.99,meteohub,2013-10-15 04:32:00,
2013-10-15 00:37:00,57.6,55.2,29.87,North,-999,-999.0,-999.0,92,-99.99,,,-99.99,meteohub,2013-10-15 04:37:00,
2013-10-15 00:43:00,57.6,55.2,29.87,North,-999,-999.0,-999.0,92,-99.99,,,-99.99,meteohub,2013-10-15 04:43:00,
2013-10-15 00:48:00,57.6,55.6,29.87,North,-999,-999.0,-999.0,93,-99.99,,,-99.99,meteohub,2013-10-15 04:48:00,
2013-10-15 00:53:00,57.4,55.0,29.87,North,-999,-999.0,-999.0,92,-99.99,,,-99.99,meteohub,2013-10-15 04:53:00,
2013-10-15 00:58:00,57.4,55.4,29.87,North,-999,-999.0,-999.0,93,-99.99,,,-99.99,meteohub,2013-10-15 04:58:00,
2013-10-15 01:03:00,57.4,55.4,29.87,North,-999,-999.0,-999.0,93,-99.99,,,-99.99,meteohub,2013-10-15 05:03:00,
2013-10-15 01:08:00,57.4,55.4,29.87,North,-999,-999.0,-999.0,93,-99.99,,,-99.99,meteohub,2013-10-15 05:08:00,
2013-10-15 01:14:00,57.4,55.4,29.87,North,-999,-999.0,-999.0,93,-99.99,,,-99.99,meteohub,2013-10-15 05:14:00,
2013-10-15 01:19:00,57.2,55.2,29.87,North,-999,-999.0,-999.0,93,-99.99,,,-99.99,meteohub,2013-10-15 05:19:00,
2013-10-15 01:24:00,57.2,55.2,29.87,North,-999,-999.0,-999.0,93,-99.99,,,-99.99,meteohub,2013-10-15 05:24:00,
2013-10-15 01:29:00,57.2,55.2,29.87,North,-999,-999.0,-999.0,93,-99.99,,,-99.99,meteohub,2013-10-15 05:29:00,
2013-10-15 01:34:00,57.2,55.2,29.84,North,-999,-999.0,-999.0,93,-99.99,,,-99.99,meteohub,2013-10-15 05:34:00,
2013-10-15 01:39:00,57.0,55.0,29.84,North,-999,-999.0,-999.0,93,-99.99,,,-99.99,meteohub,2013-10-15 05:39:00,
2013-10-15 01:44:00,57.0,55.0,29.84,North,-999,-999.0,-999.0,93,-99.99,,,-99.99,meteohub,2013-10-15 05:44:00,
2013-10-15 01:50:00,56.8,54.9,29.84,North,-999,-999.0,-999.0,93,-99.99,,,-99.99,meteohub,2013-10-15 05:50:00,
2013-10-15 01:55:00,56.8,54.9,29.84,North,-999,-999.0,-999.0,93,-99.99,,,-99.99,meteohub,2013-10-15 05:55:00,
2013-10-15 02:00:00,56.8,54.9,29.84,North,-999,-999.0,-999.0,93,-99.99,,,-99.99,meteohub,2013-10-15 06:00:00,
2013-10-15 02:05:00,56.8,54.9,29.84,North,-999,-999.0,-999.0,93,-99.99,,,-99.99,meteohub,2013-10-15 06:05:00,
2013-10-15 02:10:00,56.8,54.9,29.84,North,-999,-999.0,-999.0,93,-99.99,,,-99.99,meteohub,2013-10-15 06:10:00,
2013-10-15 02:15:00,56.7,54.7,29.84,North,-999,-999.0,-999.0,93,-99.99,,,-99.99,meteohub,2013-10-15 06:15:00,
2013-10-15 02:20:00,56.7,54.7,29.84,North,-999,-999.0,-999.0,93,-99.99,,,-99.99,meteohub,2013-10-15 06:20:00,
2013-10-15 02:26:00,56.7,54.7,29.84,North,-999,-999.0,-999.0,93,-99.99,,,-99.99,meteohub,2013-10-15 06:26:00,
2013-10-15 02:31:00,56.5,54.5,29.84,North,-999,-999.0,-999.0,93,-99.99,,,-99.99,meteohub,2013-10-15 06:31:00,
2013-10-15 02:36:00,56.5,54.5,29.84,North,-999,-999.0,-999.0,93,-99.99,,,-99.99,meteohub,2013-10-15 06:36:00,
2013-10-15 02:41:00,56.5,54.5,29.84,North,-999,-999.0,-999.0,93,-99.99,,,-99.99,meteohub,2013-10-15 06:41:00,
2013-10-15 02:46:00,56.5,54.5,29.84,North,-999,-999.0,-999.0,93,-99.99,,,-99.99,meteohub,2013-10-15 06:46:00,
2013-10-15 02:51:00,56.3,54.3,29.84,North,-999,-999.0,-999.0,93,-99.99,,,-99.99,meteohub,2013-10-15 06:51:00,
2013-10-15 02:56:00,56.3,54.3,29.84,North,-999,-999.0,-999.0,93,-99.99,,,-99.99,meteohub,2013-10-15 06:56:00,
2013-10-15 03:02:00,56.3,54.3,29.84,North,-999,-999.0,-999.0,93,-99.99,,,-99.99,meteohub,2013-10-15 07:02:00,
2013-10-15 03:07:00,56.1,54.1,29.84,North,-999,-999.0,-999.0,93,-99.99,,,-99.99,meteohub,2013-10-15 07:07:00,
2013-10-15 03:12:00,56.1,54.1,29.84,North,-999,-999.0,-999.0,93,-99.99,,,-99.99,meteohub,2013-10-15 07:12:00,
2013-10-15 03:17:00,56.1,54.1,29.84,North,-999,-999.0,-999.0,93,-99.99,,,-99.99,meteohub,2013-10-15 07:17:00,
2013-10-15 03:22:00,56.1,54.1,29.84,North,-999,-999.0,-999.0,93,-99.99,,,-99.99,meteohub,2013-10-15 07:22:00,
2013-10-15 03:27:00,55.9,54.0,29.84,North,-999,-999.0,-999.0,93,-99.99,,,-99.99,meteohub,2013-10-15 07:27:00,
2013-10-15 03:32:00,55.9,54.0,29.84,North,-999,-999.0,-999.0,93,-99.99,,,-99.99,meteohub,2013-10-15 07:32:00,
2013-10-15 03:37:00,55.9,54.0,29.84,North,-999,-999.0,-999.0,93,-99.99,,,-99.99,meteohub,2013-10-15 07:37:00,
2013-10-15 03:42:00,55.8,53.8,29.84,North,-999,-999.0,-999.0,93,-99.99,,,-99.99,meteohub,2013-10-15 07:42:00,
2013-10-15 03:47:00,55.8,53.8,29.84,North,-999,-999.0,-999.0,93,-99.99,,,-99.99,meteohub,2013-10-15 07:47:00,
2013-10-15 03:52:00,55.8,54.1,29.81,North,-999,-999.0,-999.0,94,-99.99,,,-99.99,meteohub,2013-10-15 07:52:00,
2013-10-15 03:57:00,55.8,54.1,29.81,North,-999,-999.0,-999.0,94,-99.99,,,-99.99,meteohub,2013-10-15 07:57:00,
2013-10-15 04:02:00,55.6,54.0,29.81,North,-999,-999.0,-999.0,94,-99.99,,,-99.99,meteohub,2013-10-15 08:02:00,
2013-10-15 04:07:00,55.6,54.0,29.84,North,-999,-999.0,-999.0,94,-99.99,,,-99.99,meteohub,2013-10-15 08:07:00,
2013-10-15 04:12:00,55.4,53.8,29.84,North,-999,-999.0,-999.0,94,-99.99,,,-99.99,meteohub,2013-10-15 08:12:00,
2013-10-15 04:17:00,55.4,53.8,29.84,North,-999,-999.0,-999.0,94,-99.99,,,-99.99,meteohub,2013-10-15 08:17:00,
2013-10-15 04:22:00,55.4,53.8,29.84,North,-999,-999.0,-999.0,94,-99.99,,,-99.99,meteohub,2013-10-15 08:22:00,
2013-10-15 04:27:00,55.4,53.8,29.84,North,-999,-999.0,-999.0,94,-99.99,,,-99.99,meteohub,2013-10-15 08:27:00,
2013-10-15 04:32:00,55.6,54.0,29.84,North,-999,-999.0,-999.0,94,-99.99,,,-99.99,meteohub,2013-10-15 08:32:00,
2013-10-15 04:37:00,55.6,54.0,29.84,North,-999,-999.0,-999.0,94,-99.99,,,-99.99,meteohub,2013-10-15 08:37:00,
2013-10-15 04:42:00,55.8,54.1,29.84,North,-999,-999.0,-999.0,94,-99.99,,,-99.99,meteohub,2013-10-15 08:42:00,
2013-10-15 04:47:00,55.8,54.1,29.84,North,-999,-999.0,-999.0,94,-99.99,,,-99.99,meteohub,2013-10-15 08:47:00,
2013-10-15 04:50:00,55.9,54.3,29.84,North,-999,-999.0,-999.0,94,-99.99,,,-99.99,meteohub,2013-10-15 08:50:00,
2013-10-15 04:55:00,55.9,54.3,29.84,North,-999,-999.0,-999.0,94,-99.99,,,-99.99,meteohub,2013-10-15 08:55:00,
2013-10-15 05:00:00,55.9,54.5,29.84,North,-999,-999.0,-999.0,95,-99.99,,,-99.99,meteohub,2013-10-15 09:00:00,
2013-10-15 05:05:00,56.1,54.7,29.84,North,-999,-999.0,-999.0,95,-99.99,,,-99.99,meteohub,2013-10-15 09:05:00,
2013-10-15 05:11:00,56.1,54.7,29.84,North,-999,-999.0,-999.0,95,-99.99,,,-99.99,meteohub,2013-10-15 09:11:00,
2013-10-15 05:16:00,56.1,54.7,29.84,North,-999,-999.0,-999.0,95,-99.99,,,-99.99,meteohub,2013-10-15 09:16:00,
2013-10-15 05:21:00,56.1,54.7,29.81,North,-999,-999.0,-999.0,95,-99.99,,,-99.99,meteohub,2013-10-15 09:21:00,
2013-10-15 05:26:00,55.9,54.3,29.81,North,-999,-999.0,-999.0,94,-99.99,,,-99.99,meteohub,2013-10-15 09:26:00,
2013-10-15 05:31:00,55.9,54.3,29.81,North,-999,-999.0,-999.0,94,-99.99,,,-99.99,meteohub,2013-10-15 09:31:00,
2013-10-15 05:36:00,55.8,54.1,29.81,North,-999,-999.0,-999.0,94,-99.99,,,-99.99,meteohub,2013-10-15 09:36:00,
2013-10-15 05:41:00,55.8,54.1,29.81,North,-999,-999.0,-999.0,94,-99.99,,,-99.99,meteohub,2013-10-15 09:41:00,
2013-10-15 05:46:00,55.6,54.0,29.81,North,-999,-999.0,-999.0,94,-99.99,,,-99.99,meteohub,2013-10-15 09:46:00,
2013-10-15 05:52:00,55.4,53.8,29.84,North,-999,-999.0,-999.0,94,-99.99,,,-99.99,meteohub,2013-10-15 09:52:00,
2013-10-15 05:57:00,55.2,53.6,29.84,North,-999,-999.0,-999.0,94,-99.99,,,-99.99,meteohub,2013-10-15 09:57:00,
2013-10-15 06:02:00,55.2,53.6,29.84,North,-999,-999.0,-999.0,94,-99.99,,,-99.99,meteohub,2013-10-15 10:02:00,
2013-10-15 06:07:00,55.0,53.4,29.84,North,-999,-999.0,-999.0,94,-99.99,,,-99.99,meteohub,2013-10-15 10:07:00,
2013-10-15 06:12:00,54.9,53.2,29.84,North,-999,-999.0,-999.0,94,-99.99,,,-99.99,meteohub,2013-10-15 10:12:00,
2013-10-15 06:17:00,54.7,53.1,29.84,North,-999,-999.0,-999.0,94,-99.99,,,-99.99,meteohub,2013-10-15 10:17:00,
2013-10-15 06:22:00,54.7,53.1,29.81,North,-999,-999.0,-999.0,94,-99.99,,,-99.99,meteohub,2013-10-15 10:22:00,
2013-10-15 06:27:00,54.9,53.2,29.81,North,-999,-999.0,-999.0,94,-99.99,,,-99.99,meteohub,2013-10-15 10:27:00,
2013-10-15 06:32:00,55.0,53.6,29.81,North,-999,-999.0,-999.0,95,-99.99,,,-99.99,meteohub,2013-10-15 10:32:00,
2013-10-15 06:37:00,55.0,53.6,29.84,North,-999,-999.0,-999.0,95,-99.99,,,-99.99,meteohub,2013-10-15 10:37:00,
2013-10-15 06:42:00,55.0,53.6,29.84,North,-999,-999.0,-999.0,95,-99.99,,,-99.99,meteohub,2013-10-15 10:42:00,
2013-10-15 06:47:00,55.2,53.8,29.84,North,-999,-999.0,-999.0,95,-99.99,,,-99.99,meteohub,2013-10-15 10:47:00,
2013-10-15 06:52:00,55.2,53.8,29.84,North,-999,-999.0,-999.0,95,-99.99,,,-99.99,meteohub,2013-10-15 10:52:00,
2013-10-15 06:57:00,55.2,53.8,29.84,North,-999,-999.0,-999.0,95,-99.99,,,-99.99,meteohub,2013-10-15 10:57:00,
2013-10-15 07:02:00,55.2,53.8,29.84,North,-999,-999.0,-999.0,95,-99.99,,,-99.99,meteohub,2013-10-15 11:02:00,
2013-10-15 07:07:00,55.4,54.0,29.84,North,-999,-999.0,-999.0,95,-99.99,,,-99.99,meteohub,2013-10-15 11:07:00,
2013-10-15 07:12:00,55.4,54.0,29.84,North,-999,-999.0,-999.0,95,-99.99,,,-99.99,meteohub,2013-10-15 11:12:00,
2013-10-15 07:17:00,55.4,54.0,29.84,North,-999,-999.0,-999.0,95,-99.99,,,-99.99,meteohub,2013-10-15 11:17:00,
2013-10-15 07:22:00,55.4,54.0,29.84,North,-999,-999.0,-999.0,95,-99.99,,,-99.99,meteohub,2013-10-15 11:22:00,
2013-10-15 07:27:00,55.4,54.0,29.84,North,-999,-999.0,-999.0,95,-99.99,,,-99.99,meteohub,2013-10-15 11:27:00,
2013-10-15 07:32:00,55.4,54.0,29.84,North,-999,-999.0,-999.0,95,-99.99,,,-99.99,meteohub,2013-10-15 11:32:00,
2013-10-15 07:37:00,55.4,54.0,29.84,North,-999,-999.0,-999.0,95,-99.99,,,-99.99,meteohub,2013-10-15 11:37:00,
2013-10-15 07:42:00,55.6,54.1,29.84,North,-999,-999.0,-999.0,95,-99.99,,,-99.99,meteohub,2013-10-15 11:42:00,
2013-10-15 07:47:00,55.6,54.1,29.84,North,-999,-999.0,-999.0,95,-99.99,,,-99.99,meteohub,2013-10-15 11:47:00,
2013-10-15 07:52:00,55.6,54.1,29.84,North,-999,-999.0,-999.0,95,-99.99,,,-99.99,meteohub,2013-10-15 11:52:00,
2013-10-15 07:57:00,55.6,54.1,29.84,North,-999,-999.0,-999.0,95,-99.99,,,-99.99,meteohub,2013-10-15 11:57:00,
2013-10-15 08:02:00,55.6,54.1,29.84,North,-999,-999.0,-999.0,95,-99.99,,,-99.99,meteohub,2013-10-15 12:02:00,
2013-10-15 08:07:00,55.8,54.3,29.84,North,-999,-999.0,-999.0,95,-99.99,,,-99.99,meteohub,2013-10-15 12:07:00,
2013-10-15 08:12:00,55.8,54.3,29.84,North,-999,-999.0,-999.0,95,-99.99,,,-99.99,meteohub,2013-10-15 12:12:00,
2013-10-15 08:17:00,55.8,54.3,29.84,North,-999,-999.0,-999.0,95,-99.99,,,-99.99,meteohub,2013-10-15 12:17:00,
2013-10-15 08:22:00,55.9,54.5,29.84,North,-999,-999.0,-999.0,95,-99.99,,,-99.99,meteohub,2013-10-15 12:22:00,
2013-10-15 08:27:00,55.9,54.5,29.84,North,-999,-999.0,-999.0,95,-99.99,,,-99.99,meteohub,2013-10-15 12:27:00,
2013-10-15 08:32:00,56.1,54.7,29.84,North,-999,-999.0,-999.0,95,-99.99,,,-99.99,meteohub,2013-10-15 12:32:00,
2013-10-15 08:37:00,56.1,54.7,29.84,North,-999,-999.0,-999.0,95,-99.99,,,-99.99,meteohub,2013-10-15 12:37:00,
2013-10-15 08:42:00,56.3,54.9,29.84,North,-999,-999.0,-999.0,95,-99.99,,,-99.99,meteohub,2013-10-15 12:42:00,
2013-10-15 08:47:00,56.3,54.9,29.84,North,-999,-999.0,-999.0,95,-99.99,,,-99.99,meteohub,2013-10-15 12:47:00,
2013-10-15 08:52:00,56.5,55.0,29.84,North,-999,-999.0,-999.0,95,-99.99,,,-99.99,meteohub,2013-10-15 12:52:00,
2013-10-15 08:57:00,56.5,55.0,29.84,North,-999,-999.0,-999.0,95,-99.99,,,-99.99,meteohub,2013-10-15 12:57:00,
2013-10-15 09:02:00,56.7,55.2,29.84,North,-999,-999.0,-999.0,95,-99.99,,,-99.99,meteohub,2013-10-15 13:02:00,
2013-10-15 09:07:00,56.8,55.4,29.84,North,-999,-999.0,-999.0,95,-99.99,,,-99.99,meteohub,2013-10-15 13:07:00,
2013-10-15 09:12:00,57.0,55.6,29.84,North,-999,-999.0,-999.0,95,-99.99,,,-99.99,meteohub,2013-10-15 13:12:00,
2013-10-15 09:17:00,57.2,55.6,29.84,North,-999,-999.0,-999.0,94,-99.99,,,-99.99,meteohub,2013-10-15 13:17:00,
2013-10-15 09:22:00,57.2,55.6,29.84,North,-999,-999.0,-999.0,94,-99.99,,,-99.99,meteohub,2013-10-15 13:22:00,
2013-10-15 09:27:00,57.2,55.2,29.84,North,-999,-999.0,-999.0,93,-99.99,,,-99.99,meteohub,2013-10-15 13:27:00,
2013-10-15 09:32:00,57.2,55.2,29.84,North,-999,-999.0,-999.0,93,-99.99,,,-99.99,meteohub,2013-10-15 13:32:00,
2013-10-15 09:37:00,57.4,55.4,29.84,North,-999,-999.0,-999.0,93,-99.99,,,-99.99,meteohub,2013-10-15 13:37:00,
2013-10-15 09:42:00,57.6,55.6,29.84,North,-999,-999.0,-999.0,93,-99.99,,,-99.99,meteohub,2013-10-15 13:42:00,
2013-10-15 09:47:00,57.7,55.8,29.84,North,-999,-999.0,-999.0,93,-99.99,,,-99.99,meteohub,2013-10-15 13:47:00,
2013-10-15 09:52:00,57.9,55.9,29.84,North,-999,-999.0,-999.0,93,-99.99,,,-99.99,meteohub,2013-10-15 13:52:00,
2013-10-15 09:57:00,58.1,55.8,29.84,North,-999,-999.0,-999.0,92,-99.99,,,-99.99,meteohub,2013-10-15 13:57:00,
2013-10-15 10:02:00,58.3,55.9,29.84,North,-999,-999.0,-999.0,92,-99.99,,,-99.99,meteohub,2013-10-15 14:02:00,
2013-10-15 10:07:00,58.5,56.1,29.84,North,-999,-999.0,-999.0,92,-99.99,,,-99.99,meteohub,2013-10-15 14:07:00,
2013-10-15 10:12:00,58.6,55.9,29.84,North,-999,-999.0,-999.0,91,-99.99,,,-99.99,meteohub,2013-10-15 14:12:00,
2013-10-15 10:17:00,58.8,56.1,29.84,North,-999,-999.0,-999.0,91,-99.99,,,-99.99,meteohub,2013-10-15 14:17:00,
2013-10-15 10:22:00,59.0,56.1,29.84,North,-999,-999.0,-999.0,90,-99.99,,,-99.99,meteohub,2013-10-15 14:22:00,
2013-10-15 10:27:00,59.4,56.1,29.84,North,-999,-999.0,-999.0,89,-99.99,,,-99.99,meteohub,2013-10-15 14:27:00,
2013-10-15 10:32:00,59.7,56.5,29.84,North,-999,-999.0,-999.0,89,-99.99,,,-99.99,meteohub,2013-10-15 14:32:00,
2013-10-15 10:37:00,60.1,56.5,29.84,North,-999,-999.0,-999.0,88,-99.99,,,-99.99,meteohub,2013-10-15 14:37:00,
2013-10-15 10:42:00,60.4,55.9,29.84,North,-999,-999.0,-999.0,85,-99.99,,,-99.99,meteohub,2013-10-15 14:42:00,
2013-10-15 10:47:00,60.6,56.1,29.84,North,-999,-999.0,-999.0,85,-99.99,,,-99.99,meteohub,2013-10-15 14:47:00,
2013-10-15 10:52:00,60.6,56.1,29.81,North,-999,-999.0,-999.0,85,-99.99,,,-99.99,meteohub,2013-10-15 14:52:00,
2013-10-15 10:57:00,60.8,55.9,29.81,North,-999,-999.0,-999.0,84,-99.99,,,-99.99,meteohub,2013-10-15 14:57:00,
2013-10-15 11:02:00,61.2,55.9,29.81,North,-999,-999.0,-999.0,83,-99.99,,,-99.99,meteohub,2013-10-15 15:02:00,
2013-10-15 11:07:00,61.5,55.6,29.81,North,-999,-999.0,-999.0,81,-99.99,,,-99.99,meteohub,2013-10-15 15:07:00,
2013-10-15 11:12:00,61.7,55.8,29.81,North,-999,-999.0,-999.0,81,-99.99,,,-99.99,meteohub,2013-10-15 15:12:00,
2013-10-15 11:17:00,62.1,55.8,29.81,North,-999,-999.0,-999.0,80,-99.99,,,-99.99,meteohub,2013-10-15 15:17:00,
2013-10-15 11:22:00,62.4,55.8,29.81,North,-999,-999.0,-999.0,79,-99.99,,,-99.99,meteohub,2013-10-15 15:22:00,
2013-10-15 11:27:00,62.8,55.8,29.81,North,-999,-999.0,-999.0,78,-99.99,,,-99.99,meteohub,2013-10-15 15:27:00,
2013-10-15 11:32:00,63.0,55.9,29.81,North,-999,-999.0,-999.0,78,-99.99,,,-99.99,meteohub,2013-10-15 15:32:00,
2013-10-15 11:37:00,63.3,55.9,29.81,North,-999,-999.0,-999.0,77,-99.99,,,-99.99,meteohub,2013-10-15 15:37:00,
2013-10-15 11:42:00,63.5,55.8,29.81,North,-999,-999.0,-999.0,76,-99.99,,,-99.99,meteohub,2013-10-15 15:42:00,
2013-10-15 11:47:00,63.9,55.8,29.81,North,-999,-999.0,-999.0,75,-99.99,,,-99.99,meteohub,2013-10-15 15:47:00,
2013-10-15 11:52:00,64.2,55.4,29.81,North,-999,-999.0,-999.0,73,-99.99,,,-99.99,meteohub,2013-10-15 15:52:00,
2013-10-15 11:57:00,64.8,56.3,29.81,North,-999,-999.0,-999.0,74,-99.99,,,-99.99,meteohub,2013-10-15 15:57:00,
2013-10-15 12:02:00,65.3,56.1,29.81,North,-999,-999.0,-999.0,72,-99.99,,,-99.99,meteohub,2013-10-15 16:02:00,
2013-10-15 12:07:00,65.8,56.5,29.81,North,-999,-999.0,-999.0,72,-99.99,,,-99.99,meteohub,2013-10-15 16:07:00,
2013-10-15 12:12:00,66.4,56.7,29.81,North,-999,-999.0,-999.0,71,-99.99,,,-99.99,meteohub,2013-10-15 16:12:00,
2013-10-15 12:17:00,67.1,57.4,29.81,North,-999,-999.0,-999.0,71,-99.99,,,-99.99,meteohub,2013-10-15 16:17:00,
2013-10-15 12:22:00,67.6,57.6,29.81,North,-999,-999.0,-999.0,70,-99.99,,,-99.99,meteohub,2013-10-15 16:22:00,
2013-10-15 12:27:00,67.8,57.2,29.81,North,-999,-999.0,-999.0,69,-99.99,,,-99.99,meteohub,2013-10-15 16:27:00,
2013-10-15 12:32:00,68.2,57.2,29.81,North,-999,-999.0,-999.0,68,-99.99,,,-99.99,meteohub,2013-10-15 16:32:00,
2013-10-15 12:37:00,68.4,57.7,29.81,North,-999,-999.0,-999.0,69,-99.99,,,-99.99,meteohub,2013-10-15 16:37:00,
2013-10-15 12:42:00,69.1,57.7,29.81,North,-999,-999.0,-999.0,67,-99.99,,,-99.99,meteohub,2013-10-15 16:42:00,
2013-10-15 12:47:00,69.6,57.7,29.81,North,-999,-999.0,-999.0,66,-99.99,,,-99.99,meteohub,2013-10-15 16:47:00,
2013-10-15 12:52:00,70.0,58.1,29.81,North,-999,-999.0,-999.0,66,-99.99,,,-99.99,meteohub,2013-10-15 16:52:00,
2013-10-15 12:57:00,70.5,58.3,29.81,North,-999,-999.0,-999.0,65,-99.99,,,-99.99,meteohub,2013-10-15 16:57:00,
2013-10-15 13:02:00,70.5,57.4,29.81,North,-999,-999.0,-999.0,63,-99.99,,,-99.99,meteohub,2013-10-15 17:02:00,
2013-10-15 13:07:00,70.9,58.1,29.78,North,-999,-999.0,-999.0,64,-99.99,,,-99.99,meteohub,2013-10-15 17:07:00,
2013-10-15 13:12:00,71.1,57.9,29.78,North,-999,-999.0,-999.0,63,-99.99,,,-99.99,meteohub,2013-10-15 17:12:00,
2013-10-15 13:17:00,71.2,57.0,29.78,North,-999,-999.0,-999.0,61,-99.99,,,-99.99,meteohub,2013-10-15 17:17:00,
2013-10-15 13:22:00,71.2,57.9,29.78,North,-999,-999.0,-999.0,63,-99.99,,,-99.99,meteohub,2013-10-15 17:22:00,
2013-10-15 13:27:00,70.9,55.4,29.78,North,-999,-999.0,-999.0,58,-99.99,,,-99.99,meteohub,2013-10-15 17:27:00,
2013-10-15 13:32:00,70.5,57.4,29.78,North,-999,-999.0,-999.0,63,-99.99,,,-99.99,meteohub,2013-10-15 17:32:00,
2013-10-15 13:37:00,71.2,57.6,29.78,North,-999,-999.0,-999.0,62,-99.99,,,-99.99,meteohub,2013-10-15 17:37:00,
2013-10-15 13:42:00,70.7,57.0,29.78,North,-999,-999.0,-999.0,62,-99.99,,,-99.99,meteohub,2013-10-15 17:42:00,
2013-10-15 13:47:00,70.9,57.7,29.78,North,-999,-999.0,-999.0,63,-99.99,,,-99.99,meteohub,2013-10-15 17:47:00,
2013-10-15 13:52:00,71.1,57.9,29.78,North,-999,-999.0,-999.0,63,-99.99,,,-99.99,meteohub,2013-10-15 17:52:00,
2013-10-15 13:57:00,70.5,57.4,29.78,North,-999,-999.0,-999.0,63,-99.99,,,-99.99,meteohub,2013-10-15 17:57:00,
2013-10-15 14:02:00,70.3,57.2,29.78,North,-999,-999.0,-999.0,63,-99.99,,,-99.99,meteohub,2013-10-15 18:02:00,
2013-10-15 14:07:00,70.0,56.3,29.78,North,-999,-999.0,-999.0,62,-99.99,,,-99.99,meteohub,2013-10-15 18:07:00,
2013-10-15 14:12:00,70.0,57.2,29.78,North,-999,-999.0,-999.0,64,-99.99,,,-99.99,meteohub,2013-10-15 18:12:00,
2013-10-15 14:17:00,69.8,57.0,29.78,North,-999,-999.0,-999.0,64,-99.99,,,-99.99,meteohub,2013-10-15 18:17:00,
2013-10-15 14:22:00,70.3,57.2,29.78,North,-999,-999.0,-999.0,63,-99.99,,,-99.99,meteohub,2013-10-15 18:22:00,
2013-10-15 14:27:00,70.3,57.6,29.78,North,-999,-999.0,-999.0,64,-99.99,,,-99.99,meteohub,2013-10-15 18:27:00,
2013-10-15 14:32:00,70.2,57.9,29.78,North,-999,-999.0,-999.0,65,-99.99,,,-99.99,meteohub,2013-10-15 18:32:00,
2013-10-15 14:37:00,70.3,57.6,29.78,North,-999,-999.0,-999.0,64,-99.99,,,-99.99,meteohub,2013-10-15 18:37:00,
2013-10-15 14:42:00,70.0,57.2,29.78,North,-999,-999.0,-999.0,64,-99.99,,,-99.99,meteohub,2013-10-15 18:42:00,
2013-10-15 14:47:00,69.6,57.4,29.78,North,-999,-999.0,-999.0,65,-99.99,,,-99.99,meteohub,2013-10-15 18:47:00,
2013-10-15 14:52:00,69.4,57.2,29.78,North,-999,-999.0,-999.0,65,-99.99,,,-99.99,meteohub,2013-10-15 18:52:00,
2013-10-15 14:57:00,69.1,57.2,29.78,North,-999,-999.0,-999.0,66,-99.99,,,-99.99,meteohub,2013-10-15 18:57:00,
2013-10-15 15:03:00,68.9,57.6,29.78,North,-999,-999.0,-999.0,67,-99.99,,,-99.99,meteohub,2013-10-15 19:03:00,
2013-10-15 15:08:00,68.7,57.4,29.78,North,-999,-999.0,-999.0,67,-99.99,,,-99.99,meteohub,2013-10-15 19:08:00,
2013-10-15 15:13:00,68.7,57.7,29.78,North,-999,-999.0,-999.0,68,-99.99,,,-99.99,meteohub,2013-10-15 19:13:00,
2013-10-15 15:18:00,68.7,57.7,29.78,North,-999,-999.0,-999.0,68,-99.99,,,-99.99,meteohub,2013-10-15 19:18:00,
2013-10-15 15:23:00,68.7,57.7,29.78,North,-999,-999.0,-999.0,68,-99.99,,,-99.99,meteohub,2013-10-15 19:23:00,
2013-10-15 15:28:00,68.7,57.7,29.78,North,-999,-999.0,-999.0,68,-99.99,,,-99.99,meteohub,2013-10-15 19:28:00,
2013-10-15 15:34:00,68.5,57.6,29.78,North,-999,-999.0,-999.0,68,-99.99,,,-99.99,meteohub,2013-10-15 19:34:00,
2013-10-15 15:39:00,68.5,57.9,29.78,North,-999,-999.0,-999.0,69,-99.99,,,-99.99,meteohub,2013-10-15 19:39:00,
2013-10-15 15:44:00,68.5,57.9,29.78,North,-999,-999.0,-999.0,69,-99.99,,,-99.99,meteohub,2013-10-15 19:44:00,
2013-10-15 15:49:00,68.5,57.9,29.75,North,-999,-999.0,-999.0,69,-99.99,,,-99.99,meteohub,2013-10-15 19:49:00,
2013-10-15 15:54:00,68.4,57.7,29.75,North,-999,-999.0,-999.0,69,-99.99,,,-99.99,meteohub,2013-10-15 19:54:00,
2013-10-15 16:00:00,68.4,57.7,29.75,North,-999,-999.0,-999.0,69,-99.99,,,-99.99,meteohub,2013-10-15 20:00:00,
2013-10-15 16:05:00,68.4,58.3,29.75,North,-999,-999.0,-999.0,70,-99.99,,,-99.99,meteohub,2013-10-15 20:05:00,
2013-10-15 16:10:00,68.4,58.3,29.75,North,-999,-999.0,-999.0,70,-99.99,,,-99.99,meteohub,2013-10-15 20:10:00,
2013-10-15 16:15:00,68.5,58.5,29.75,North,-999,-999.0,-999.0,70,-99.99,,,-99.99,meteohub,2013-10-15 20:15:00,
2013-10-15 16:20:00,68.5,58.5,29.75,North,-999,-999.0,-999.0,70,-99.99,,,-99.99,meteohub,2013-10-15 20:20:00,
2013-10-15 16:25:00,68.7,58.5,29.75,North,-999,-999.0,-999.0,70,-99.99,,,-99.99,meteohub,2013-10-15 20:25:00,
2013-10-15 16:30:00,68.9,58.6,29.75,North,-999,-999.0,-999.0,70,-99.99,,,-99.99,meteohub,2013-10-15 20:30:00,
2013-10-15 16:36:00,68.9,58.6,29.75,North,-999,-999.0,-999.0,70,-99.99,,,-99.99,meteohub,2013-10-15 20:36:00,
2013-10-15 16:41:00,68.9,58.6,29.75,North,-999,-999.0,-999.0,70,-99.99,,,-99.99,meteohub,2013-10-15 20:41:00,
2013-10-15 16:46:00,68.9,58.6,29.75,North,-999,-999.0,-999.0,70,-99.99,,,-99.99,meteohub,2013-10-15 20:46:00,
2013-10-15 16:51:00,68.7,58.5,29.75,North,-999,-999.0,-999.0,70,-99.99,,,-99.99,meteohub,2013-10-15 20:51:00,
2013-10-15 16:56:00,68.7,58.5,29.75,North,-999,-999.0,-999.0,70,-99.99,,,-99.99,meteohub,2013-10-15 20:56:00,
2013-10-15 17:01:00,68.7,58.5,29.75,North,-999,-999.0,-999.0,70,-99.99,,,-99.99,meteohub,2013-10-15 21:01:00,
2013-10-15 17:06:00,68.9,58.6,29.75,North,-999,-999.0,-999.0,70,-99.99,,,-99.99,meteohub,2013-10-15 21:06:00,
2013-10-15 17:12:00,68.9,58.6,29.75,North,-999,-999.0,-999.0,70,-99.99,,,-99.99,meteohub,2013-10-15 21:12:00,
2013-10-15 17:17:00,68.7,58.5,29.75,North,-999,-999.0,-999.0,70,-99.99,,,-99.99,meteohub,2013-10-15 21:17:00,
2013-10-15 17:22:00,68.7,58.5,29.75,North,-999,-999.0,-999.0,70,-99.99,,,-99.99,meteohub,2013-10-15 21:22:00,
2013-10-15 17:27:00,68.5,58.5,29.75,North,-999,-999.0,-999.0,70,-99.99,,,-99.99,meteohub,2013-10-15 21:27:00,
2013-10-15 17:32:00,68.5,58.8,29.75,North,-999,-999.0,-999.0,71,-99.99,,,-99.99,meteohub,2013-10-15 21:32:00,
2013-10-15 17:37:00,68.4,58.6,29.78,North,-999,-999.0,-999.0,71,-99.99,,,-99.99,meteohub,2013-10-15 21:37:00,
2013-10-15 17:42:00,68.2,58.5,29.78,North,-999,-999.0,-999.0,71,-99.99,,,-99.99,meteohub,2013-10-15 21:42:00,
2013-10-15 17:47:00,68.0,58.3,29.78,North,-999,-999.0,-999.0,71,-99.99,,,-99.99,meteohub,2013-10-15 21:47:00,
2013-10-15 17:52:00,67.8,58.5,29.78,North,-999,-999.0,-999.0,72,-99.99,,,-99.99,meteohub,2013-10-15 21:52:00,
2013-10-15 17:57:00,67.6,58.3,29.78,North,-999,-999.0,-999.0,72,-99.99,,,-99.99,meteohub,2013-10-15 21:57:00,
2013-10-15 18:03:00,67.5,58.1,29.78,North,-999,-999.0,-999.0,72,-99.99,,,-99.99,meteohub,2013-10-15 22:03:00,
2013-10-15 18:08:00,67.5,58.1,29.78,North,-999,-999.0,-999.0,72,-99.99,,,-99.99,meteohub,2013-10-15 22:08:00,
2013-10-15 18:13:00,67.3,58.3,29.78,North,-999,-999.0,-999.0,73,-99.99,,,-99.99,meteohub,2013-10-15 22:13:00,
2013-10-15 18:18:00,67.3,58.3,29.78,North,-999,-999.0,-999.0,73,-99.99,,,-99.99,meteohub,2013-10-15 22:18:00,
2013-10-15 18:23:00,67.1,58.1,29.75,North,-999,-999.0,-999.0,73,-99.99,,,-99.99,meteohub,2013-10-15 22:23:00,
2013-10-15 18:29:00,67.1,58.1,29.75,North,-999,-999.0,-999.0,73,-99.99,,,-99.99,meteohub,2013-10-15 22:29:00,
2013-10-15 18:34:00,66.9,57.9,29.78,North,-999,-999.0,-999.0,73,-99.99,,,-99.99,meteohub,2013-10-15 22:34:00,
2013-10-15 18:39:00,66.9,57.9,29.78,North,-999,-999.0,-999.0,73,-99.99,,,-99.99,meteohub,2013-10-15 22:39:00,
2013-10-15 18:44:00,66.7,58.3,29.78,North,-999,-999.0,-999.0,74,-99.99,,,-99.99,meteohub,2013-10-15 22:44:00,
2013-10-15 18:49:00,66.7,58.3,29.78,North,-999,-999.0,-999.0,74,-99.99,,,-99.99,meteohub,2013-10-15 22:49:00,
2013-10-15 18:54:00,66.6,58.1,29.78,North,-999,-999.0,-999.0,74,-99.99,,,-99.99,meteohub,2013-10-15 22:54:00,
2013-10-15 19:00:00,66.6,58.5,29.78,North,-999,-999.0,-999.0,75,-99.99,,,-99.99,meteohub,2013-10-15 23:00:00,
2013-10-15 19:05:00,66.6,58.1,29.78,North,-999,-999.0,-999.0,74,-99.99,,,-99.99,meteohub,2013-10-15 23:05:00,
2013-10-15 19:10:00,66.4,58.3,29.78,North,-999,-999.0,-999.0,75,-99.99,,,-99.99,meteohub,2013-10-15 23:10:00,
2013-10-15 19:15:00,66.4,58.3,29.78,North,-999,-999.0,-999.0,75,-99.99,,,-99.99,meteohub,2013-10-15 23:15:00,
2013-10-15 19:20:00,66.4,58.3,29.78,North,-999,-999.0,-999.0,75,-99.99,,,-99.99,meteohub,2013-10-15 23:20:00,
2013-10-15 19:25:00,66.4,58.3,29.78,North,-999,-999.0,-999.0,75,-99.99,,,-99.99,meteohub,2013-10-15 23:25:00,
2013-10-15 19:31:00,66.2,58.1,29.78,North,-999,-999.0,-999.0,75,-99.99,,,-99.99,meteohub,2013-10-15 23:31:00,
2013-10-15 19:36:00,66.2,58.1,29.78,North,-999,-999.0,-999.0,75,-99.99,,,-99.99,meteohub,2013-10-15 23:36:00,
2013-10-15 19:41:00,66.2,58.1,29.78,North,-999,-999.0,-999.0,75,-99.99,,,-99.99,meteohub,2013-10-15 23:41:00,
2013-10-15 19:46:00,66.2,58.5,29.78,North,-999,-999.0,-999.0,76,-99.99,,,-99.99,meteohub,2013-10-15 23:46:00,
2013-10-15 19:51:00,66.0,58.3,29.78,North,-999,-999.0,-999.0,76,-99.99,,,-99.99,meteohub,2013-10-15 23:51:00,
2013-10-15 19:57:00,66.0,58.6,29.78,North,-999,-999.0,-999.0,77,-99.99,,,-99.99,meteohub,2013-10-15 23:57:00,
2013-10-15 20:02:00,66.0,58.6,29.78,North,-999,-999.0,-999.0,77,-99.99,,,-99.99,meteohub,2013-10-16 00:02:00,
2013-10-15 20:07:00,66.0,58.6,29.78,North,-999,-999.0,-999.0,77,-99.99,,,-99.99,meteohub,2013-10-16 00:07:00,
2013-10-15 20:12:00,66.0,58.6,29.78,North,-999,-999.0,-999.0,77,-99.99,,,-99.99,meteohub,2013-10-16 00:12:00,
2013-10-15 20:17:00,66.0,58.6,29.78,North,-999,-999.0,-999.0,77,-99.99,,,-99.99,meteohub,2013-10-16 00:17:00,
2013-10-15 20:22:00,65.8,58.5,29.78,North,-999,-999.0,-999.0,77,-99.99,,,-99.99,meteohub,2013-10-16 00:22:00,
2013-10-15 20:27:00,66.0,58.6,29.78,North,-999,-999.0,-999.0,77,-99.99,,,-99.99,meteohub,2013-10-16 00:27:00,
2013-10-15 20:32:00,66.0,58.6,29.78,North,-999,-999.0,-999.0,77,-99.99,,,-99.99,meteohub,2013-10-16 00:32:00,
2013-10-15 20:37:00,65.8,58.5,29.78,North,-999,-999.0,-999.0,77,-99.99,,,-99.99,meteohub,2013-10-16 00:37:00,
2013-10-15 20:42:00,65.8,58.5,29.78,North,-999,-999.0,-999.0,77,-99.99,,,-99.99,meteohub,2013-10-16 00:42:00,
2013-10-15 20:47:00,65.8,58.5,29.78,North,-999,-999.0,-999.0,77,-99.99,,,-99.99,meteohub,2013-10-16 00:47:00,
2013-10-15 20:52:00,65.8,58.5,29.78,North,-999,-999.0,-999.0,77,-99.99,,,-99.99,meteohub,2013-10-16 00:52:00,
2013-10-15 20:57:00,65.8,58.5,29.78,North,-999,-999.0,-999.0,77,-99.99,,,-99.99,meteohub,2013-10-16 00:57:00,
2013-10-15 21:02:00,65.8,58.8,29.78,North,-999,-999.0,-999.0,78,-99.99,,,-99.99,meteohub,2013-10-16 01:02:00,
2013-10-15 21:07:00,65.8,58.8,29.78,North,-999,-999.0,-999.0,78,-99.99,,,-99.99,meteohub,2013-10-16 01:07:00,
2013-10-15 21:13:00,65.8,58.8,29.78,North,-999,-999.0,-999.0,78,-99.99,,,-99.99,meteohub,2013-10-16 01:13:00,
2013-10-15 21:18:00,65.8,58.8,29.78,North,-999,-999.0,-999.0,78,-99.99,,,-99.99,meteohub,2013-10-16 01:18:00,
2013-10-15 21:23:00,65.8,58.8,29.78,North,-999,-999.0,-999.0,78,-99.99,,,-99.99,meteohub,2013-10-16 01:23:00,
2013-10-15 21:28:00,65.7,58.6,29.78,North,-999,-999.0,-999.0,78,-99.99,,,-99.99,meteohub,2013-10-16 01:28:00,
2013-10-15 21:34:00,65.7,58.6,29.78,North,-999,-999.0,-999.0,78,-99.99,,,-99.99,meteohub,2013-10-16 01:34:00,
2013-10-15 21:39:00,65.7,59.0,29.78,North,-999,-999.0,-999.0,79,-99.99,,,-99.99,meteohub,2013-10-16 01:39:00,
2013-10-15 21:44:00,65.7,59.0,29.78,North,-999,-999.0,-999.0,79,-99.99,,,-99.99,meteohub,2013-10-16 01:44:00,
2013-10-15 21:49:00,65.5,58.8,29.78,North,-999,-999.0,-999.0,79,-99.99,,,-99.99,meteohub,2013-10-16 01:49:00,
2013-10-15 21:54:00,65.5,58.8,29.78,North,-999,-999.0,-999.0,79,-99.99,,,-99.99,meteohub,2013-10-16 01:54:00,
2013-10-15 22:00:00,65.5,58.8,29.78,North,-999,-999.0,-999.0,79,-99.99,,,-99.99,meteohub,2013-10-16 02:00:00,
2013-10-15 22:05:00,65.3,58.6,29.78,North,-999,-999.0,-999.0,79,-99.99,,,-99.99,meteohub,2013-10-16 02:05:00,
2013-10-15 22:10:00,65.3,59.0,29.78,North,-999,-999.0,-999.0,80,-99.99,,,-99.99,meteohub,2013-10-16 02:10:00,
2013-10-15 22:15:00,65.3,59.0,29.78,North,-999,-999.0,-999.0,80,-99.99,,,-99.99,meteohub,2013-10-16 02:15:00,
2013-10-15 22:20:00,65.3,59.0,29.78,North,-999,-999.0,-999.0,80,-99.99,,,-99.99,meteohub,2013-10-16 02:20:00,
2013-10-15 22:26:00,65.1,58.8,29.78,North,-999,-999.0,-999.0,80,-99.99,,,-99.99,meteohub,2013-10-16 02:26:00,
2013-10-15 22:31:00,65.1,58.8,29.78,North,-999,-999.0,-999.0,80,-99.99,,,-99.99,meteohub,2013-10-16 02:31:00,
2013-10-15 22:36:00,65.1,59.2,29.78,North,-999,-999.0,-999.0,81,-99.99,,,-99.99,meteohub,2013-10-16 02:36:00,
2013-10-15 22:41:00,65.1,59.2,29.78,North,-999,-999.0,-999.0,81,-99.99,,,-99.99,meteohub,2013-10-16 02:41:00,
2013-10-15 22:46:00,65.1,59.2,29.78,North,-999,-999.0,-999.0,81,-99.99,,,-99.99,meteohub,2013-10-16 02:46:00,
2013-10-15 22:52:00,64.9,59.0,29.78,North,-999,-999.0,-999.0,81,-99.99,,,-99.99,meteohub,2013-10-16 02:52:00,
2013-10-15 22:57:00,64.9,59.0,29.78,North,-999,-999.0,-999.0,81,-99.99,,,-99.99,meteohub,2013-10-16 02:57:00,
2013-10-15 23:02:00,64.8,59.2,29.78,North,-999,-999.0,-999.0,82,-99.99,,,-99.99,meteohub,2013-10-16 03:02:00,
2013-10-15 23:07:00,64.6,59.0,29.78,North,-999,-999.0,-999.0,82,-99.99,,,-99.99,meteohub,2013-10-16 03:07:00,
2013-10-15 23:12:00,64.6,59.0,29.78,North,-999,-999.0,-999.0,82,-99.99,,,-99.99,meteohub,2013-10-16 03:12:00,
2013-10-15 23:17:00,64.6,59.0,29.78,North,-999,-999.0,-999.0,82,-99.99,,,-99.99,meteohub,2013-10-16 03:17:00,
2013-10-15 23:22:00,64.6,59.0,29.78,North,-999,-999.0,-999.0,82,-99.99,,,-99.99,meteohub,2013-10-16 03:22:00,
2013-10-15 23:27:00,64.4,58.8,29.78,North,-999,-999.0,-999.0,82,-99.99,,,-99.99,meteohub,2013-10-16 03:27:00,
2013-10-15 23:33:00,64.4,59.2,29.78,North,-999,-999.0,-999.0,83,-99.99,,,-99.99,meteohub,2013-10-16 03:33:00,
2013-10-15 23:38:00,64.4,59.2,29.78,North,-999,-999.0,-999.0,83,-99.99,,,-99.99,meteohub,2013-10-16 03:38:00,
2013-10-15 23:43:00,64.4,59.2,29.78,North,-999,-999.0,-999.0,83,-99.99,,,-99.99,meteohub,2013-10-16 03:43:00,
2013-10-15 23:48:00,64.4,59.2,29.78,North,-999,-999.0,-999.0,83,-99.99,,,-99.99,meteohub,2013-10-16 03:48:00,
2013-10-15 23:53:00,64.4,59.2,29.78,North,-999,-999.0,-999.0,83,-99.99,,,-99.99,meteohub,2013-10-16 03:53:00,
2013-10-15 23:58:00,64.4,59.2,29.78,North,-999,-999.0,-999.0,83,-99.99,,,-99.99,meteohub,2013-10-16 03:58:00,